Terminal Aerodrome Forecast
Issued by NWS Grand Forks, ND

Home | Current Version | Previous Version | Text Only | Print | Product List | Glossary On
Versions: 1 2 3 4 5 6 7 8 9 10 11 12 13 14
000
FTUS43 KFGF 271137
TAFFAR
TAF
KFAR 271137Z 2712/2812 00000KT P6SM OVC035
     FM271700 10006KT P6SM BKN080
     FM280300 03009KT P6SM OVC035
     FM280400 03011KT P6SM OVC015
     FM281000 01013KT P6SM OVC008=

USA.gov is the U.S. government's official web portal to all federal, state and local government web resources and services.